Flight Track Log - Related Links

Times and Time Zones

All times are in EDT time to prevent confusion due to time zone crossing. See the LOF3416 flight status page for this flight to view local times or setup timezone preferences in your user account.

Time Position Orientation Groundspeed Altitude Reporting Facility
EDT Latitude Longitude Course Direction KTS MPH feet Rate Location/Type
Wed 08:19:12 PM 37.3772 -93.2808 38° Northeast 248 285 5,500  Level Kansas City Center
Wed 08:20:13 PM 37.4392 -93.2244 36° Northeast 268 308 8,000 2,195 Climbing Kansas City Center
Wed 08:21:15 PM 37.5006 -93.1681 36° Northeast 272 313 10,000 1,707 Climbing Kansas City Center
Wed 08:22:16 PM 37.5664 -93.1089 35° Northeast 284 327 11,500 1,317 Climbing Kansas City Center
Wed 08:23:00 PM 37.7363 -92.9304 38° Northeast  Level FlightAware Approximate
Wed 08:23:18 PM 37.6386 -93.0411 37° Northeast 306 352 12,700  Level Kansas City Center
Wed 08:24:00 PM 37.8174 -92.8493 38° Northeast  Level FlightAware Approximate
Wed 08:24:19 PM 37.7136 -92.9728 36° Northeast 324 373 14,200  Level Kansas City Center
Wed 08:25:21 PM 37.7903 -92.9028 36° Northeast 335 386 15,600 1,268 Climbing Kansas City Center
Wed 08:26:22 PM 37.8692 -92.8303 36° Northeast 344 396 16,800 1,328 Climbing Kansas City Center
Wed 08:27:23 PM 37.9494 -92.7572 36° Northeast 350 403 18,300 1,463 Climbing Kansas City Center
Wed 08:28:25 PM 38.0322 -92.6800 36° Northeast 351 404 19,800 1,463 Climbing Kansas City Center
Wed 08:29:26 PM 38.1119 -92.6058 36° Northeast 354 407 21,300 1,574 Climbing Kansas City Center
Wed 08:30:27 PM 38.1925 -92.5314 36° Northeast 356 410 23,000 1,463 Climbing Kansas City Center
Wed 08:31:29 PM 38.2714 -92.4600 35° Northeast 352 405 24,300 1,171 Climbing Kansas City Center
Wed 08:32:30 PM 38.3522 -92.3842 36° Northeast 354 407 25,400 1,131 Climbing Kansas City Center
Wed 08:33:31 PM 38.4531 -92.2883 37° Northeast 365 420 26,600 780 Climbing Kansas City Center
Wed 08:34:33 PM 38.5411 -92.2069 36° Northeast 376 433 27,000 195 Climbing Kansas City Center
Wed 08:35:34 PM 38.6356 -92.1164 37° Northeast 404 465 27,000  Level Kansas City Center
Wed 08:36:35 PM 38.7350 -92.0208 37° Northeast 435 501 27,000  Level Kansas City Center
Wed 08:37:37 PM 38.8372 -91.9222 37° Northeast 454 522 27,000  Level Kansas City Center
Wed 08:38:38 PM 38.9403 -91.8236 37° Northeast 460 529 27,000  Level Kansas City Center
Wed 08:39:39 PM 39.0436 -91.7256 36° Northeast 461 531 27,000  Level Kansas City Center
Wed 08:40:41 PM 39.1425 -91.6306 37° Northeast 459 528 27,000  Level Kansas City Center
Wed 08:41:42 PM 39.2444 -91.5325 37° Northeast 457 526 27,000  Level Kansas City Center
Wed 08:42:43 PM 39.3494 -91.4317 37° Northeast 465 535 27,000  Level Kansas City Center
Wed 08:43:45 PM 39.4517 -91.3317 37° Northeast 463 533 27,000  Level Kansas City Center
Wed 08:44:46 PM 39.5761 -91.2100 37° Northeast 464 534 27,000  Level Kansas City Center
Wed 08:45:47 PM 39.6797 -91.1086 37° Northeast 466 536 27,000  Level Kansas City Center
Wed 08:46:49 PM 39.7856 -91.0036 37° Northeast 467 537 27,000  Level Kansas City Center
Wed 08:47:50 PM 39.8839 -90.9039 38° Northeast 467 537 27,000  Level Kansas City Center
Wed 08:48:52 PM 39.9892 -90.7989 37° Northeast 473 544 27,000  Level Kansas City Center
Wed 08:49:53 PM 40.0922 -90.6936 38° Northeast 472 543 27,000  Level Kansas City Center
Wed 08:50:54 PM 40.1972 -90.5878 38° Northeast 474 545 27,000  Level Kansas City Center
Wed 08:51:56 PM 40.3003 -90.4814 38° Northeast 472 543 27,000  Level Kansas City Center
Wed 08:52:57 PM 40.4033 -90.3750 38° Northeast 471 542 27,000  Level Kansas City Center
Wed 08:53:59 PM 40.5289 -90.2467 38° Northeast 474 545 27,000  Level Kansas City Center
Wed 08:55:00 PM 40.6267 -90.1464 38° Northeast 472 543 27,000  Level Kansas City Center
Wed 08:56:01 PM 40.7289 -90.0411 38° Northeast 472 543 27,000 -488 Level Kansas City Center
Wed 08:57:03 PM 40.8442 -89.9233 38° Northeast 471 542 26,000 -1,117 Descending Kansas City Center
Wed 08:58:26 PM 40.9675 -89.7908 39° Northeast 457 526 24,300 -828 Descending Chicago Center
Wed 08:59:28 PM 41.0808 -89.6725 38° Northeast 449 517 24,000 -439 Descending Chicago Center
Wed 09:00:29 PM 41.1711 -89.5589 43° Northeast 458 527 23,400 -1,463 Descending Chicago Center
Wed 09:01:31 PM 41.2342 -89.4042 62° Northeast 474 545 21,000 -2,323 Descending Chicago Center
Wed 09:02:33 PM 41.2939 -89.2564 62° Northeast 464 534 18,600 -2,274 Descending Chicago Center
Wed 09:03:35 PM 41.3481 -89.1181 62° Northeast 426 490 16,300 -2,293 Descending Chicago Center
Wed 09:04:36 PM 41.4028 -88.9806 62° Northeast 424 488 13,900 -2,341 Descending Chicago Center
Wed 09:05:38 PM 41.4547 -88.8503 62° Northeast 404 465 11,500 -1,403 Descending Chicago Center
Wed 09:06:40 PM 41.5131 -88.7039 62° Northeast 375 432 11,000 -194 Descending Chicago Center
Wed 09:07:42 PM 41.5558 -88.5922 63° Northeast 342 394 11,100 49 Climbing Chicago Center
Wed 09:08:43 PM 41.5961 -88.4961 61° Northeast 301 346 11,100 -98 Level Chicago Center
Wed 09:09:45 PM 41.6428 -88.4025 56° Northeast 300 345 10,900 -532 Descending Chicago Center
Wed 09:10:47 PM 41.6561 -88.2878 81° East 313 360 10,000 -919 Descending Chicago Center
Wed 09:11:49 PM 41.6958 -88.2006 59° Northeast 277 319 9,000 -1,415 Descending Chicago Center
Wed 09:12:50 PM 41.7547 -88.1339 40° Northeast 275 316 7,100 -1,512 Descending Chicago Center
Wed 09:13:52 PM 41.8097 -88.0692 41° Northeast 212 244 5,900 -1,306 Descending Chicago Center
Wed 09:14:54 PM 41.8494 -88.0231 41° Northeast 191 220 4,400 -1,458 Descending Chicago Center
Wed 09:15:39 PM 41.8833 -87.9833 41° Northeast 165 190 3,300 -1,486 Descending Chicago TRACON
Wed 09:16:39 PM 41.9000 -87.9500 56° Northeast 122 140 1,800 -1,050 Descending Chicago TRACON
Wed 09:17:39 PM 41.9333 -87.9167 37° Northeast 129 148 1,200 -600 Descending Chicago TRACON
Wed 09:19:00 PM 41.9667 -87.9000 37° Northeast  Level FlightAware Approximate
Wed 09:26:00 PM 41.9817 -87.9067 37° Northeast  Level Estimated

Login

Don't have an account? Register now (free) for customized features, flight alerts, and more!